createdAt,value
2018-05-27T00:00:03.905Z,15.10
2018-05-27T00:00:26.113Z,14.40
2018-05-27T00:00:47.933Z,14.80
2018-05-27T00:01:09.378Z,15.20
2018-05-27T00:01:32.249Z,14.50
2018-05-27T00:01:54.344Z,14.80
2018-05-27T00:02:15.736Z,14.80
2018-05-27T00:02:37.225Z,14.90
2018-05-27T00:03:00.163Z,14.80
2018-05-27T00:03:22.355Z,14.50
2018-05-27T00:03:45.272Z,15.00
2018-05-27T00:04:07.445Z,14.80
2018-05-27T00:04:29.314Z,14.80
2018-05-27T00:04:51.147Z,15.10
2018-05-27T00:05:12.515Z,15.10
2018-05-27T00:05:34.665Z,15.20
2018-05-27T00:05:56.839Z,14.80
2018-05-27T00:06:18.272Z,15.10
2018-05-27T00:06:40.458Z,14.50
2018-05-27T00:07:02.590Z,14.80
2018-05-27T00:07:25.118Z,14.80
2018-05-27T00:07:47.324Z,15.30
2018-05-27T00:08:09.276Z,14.80
2018-05-27T00:08:55.013Z,14.50
2018-05-27T00:09:17.682Z,14.50
2018-05-27T00:09:39.250Z,15.20
2018-05-27T00:10:01.750Z,14.90
2018-05-27T00:10:23.087Z,15.10
2018-05-27T00:10:45.168Z,15.10
2018-05-27T00:11:06.534Z,14.80
2018-05-27T00:11:28.002Z,14.50
2018-05-27T00:11:50.213Z,14.70
2018-05-27T00:12:12.738Z,14.70
2018-05-27T00:12:34.603Z,15.10
2018-05-27T00:12:57.013Z,14.60
2018-05-27T00:13:18.980Z,15.00
2018-05-27T00:13:40.731Z,15.20
2018-05-27T00:14:02.983Z,14.80
2018-05-27T00:14:55.391Z,14.80
2018-05-27T00:15:17.957Z,14.40
2018-05-27T00:15:39.345Z,14.80
2018-05-27T00:16:23.982Z,14.10
2018-05-27T00:17:09.859Z,14.40
2018-05-27T00:17:32.691Z,14.40
2018-05-27T00:17:54.151Z,14.10
2018-05-27T00:18:39.194Z,13.90
2018-05-27T00:19:00.585Z,13.90
2018-05-27T00:19:22.435Z,14.20
2018-05-27T00:19:44.631Z,14.30
2018-05-27T00:20:06.452Z,13.90
2018-05-27T00:20:28.390Z,14.00
2018-05-27T00:20:49.782Z,13.90
2018-05-27T00:21:57.889Z,14.10
2018-05-27T00:22:19.721Z,14.60
2018-05-27T00:22:41.127Z,14.60
2018-05-27T00:23:02.889Z,14.50
2018-05-27T00:23:25.053Z,14.60
2018-05-27T00:23:48.065Z,14.30
2018-05-27T00:24:33.079Z,14.00
2018-05-27T00:25:18.367Z,14.00
2018-05-27T00:25:40.942Z,14.10
2018-05-27T00:26:02.800Z,13.80
2018-05-27T00:26:24.264Z,13.90
2018-05-27T00:26:45.796Z,14.20
2018-05-27T00:27:08.384Z,14.20
2018-05-27T00:27:29.864Z,14.30
2018-05-27T00:27:52.370Z,13.80
2018-05-27T00:28:14.414Z,14.50
2018-05-27T00:28:36.465Z,13.80
2018-05-27T00:28:57.802Z,14.40
2018-05-27T00:29:43.360Z,14.10
2018-05-27T00:30:04.779Z,14.00
2018-05-27T00:30:26.563Z,14.30
2018-05-27T00:31:11.928Z,13.80
2018-05-27T00:31:34.091Z,13.90
2018-05-27T00:32:19.084Z,13.60
2018-05-27T00:32:41.064Z,13.60
2018-05-27T00:33:03.983Z,14.20
2018-05-27T00:33:48.966Z,13.50
2018-05-27T00:34:11.119Z,14.30
2018-05-27T00:34:32.574Z,14.10
2018-05-27T00:35:45.713Z,14.10
2018-05-27T00:36:54.271Z,13.80
2018-05-27T00:38:02.283Z,13.90
2018-05-27T00:38:24.079Z,14.10
2018-05-27T00:38:45.888Z,13.80
2018-05-27T00:39:31.751Z,13.90
2018-05-27T00:39:54.000Z,14.30
2018-05-27T00:40:38.535Z,14.20
2018-05-27T00:40:59.854Z,13.70
2018-05-27T00:42:07.304Z,14.00
2018-05-27T00:42:51.713Z,14.20
2018-05-27T00:43:13.039Z,14.30
2018-05-27T00:43:35.889Z,14.00
2018-05-27T00:44:20.471Z,13.90
2018-05-27T00:44:41.953Z,14.30
2018-05-27T00:45:04.117Z,14.00
2018-05-27T00:45:25.569Z,14.00
2018-05-27T00:46:09.932Z,14.30
2018-05-27T00:46:31.372Z,13.70
2018-05-27T00:46:52.785Z,14.20
2018-05-27T00:47:14.156Z,13.80
2018-05-27T00:47:36.370Z,14.10
2018-05-27T00:47:59.381Z,14.10
2018-05-27T00:48:20.814Z,14.00
2018-05-27T00:48:43.288Z,13.80
2018-05-27T00:49:04.997Z,13.50
2018-05-27T00:49:26.683Z,14.10
2018-05-27T00:49:48.079Z,14.40
2018-05-27T00:50:10.866Z,14.10
2018-05-27T00:50:32.626Z,13.90
2018-05-27T00:50:55.668Z,14.10
2018-05-27T00:51:18.201Z,14.10
2018-05-27T00:51:39.699Z,13.80
2018-05-27T00:52:01.004Z,14.20
2018-05-27T00:52:22.279Z,14.00
2018-05-27T00:52:45.079Z,14.10
2018-05-27T00:53:06.920Z,15.20
2018-05-27T00:53:48.033Z,14.10
2018-05-27T00:54:10.230Z,13.80
2018-05-27T00:54:31.885Z,13.90
2018-05-27T00:54:53.623Z,14.10
2018-05-27T00:55:16.048Z,14.60
2018-05-27T00:55:37.759Z,13.80
2018-05-27T00:56:45.577Z,14.40
2018-05-27T00:57:08.351Z,13.90
2018-05-27T00:57:29.728Z,14.30
2018-05-27T00:57:52.160Z,14.10
2018-05-27T00:58:14.968Z,14.00
2018-05-27T00:58:36.700Z,14.40
2018-05-27T00:58:57.989Z,14.50
2018-05-27T00:59:19.279Z,14.10
2018-05-27T01:00:27.356Z,14.20
2018-05-27T01:00:49.057Z,14.10
2018-05-27T01:01:33.388Z,14.10
2018-05-27T01:01:54.675Z,14.00
2018-05-27T01:02:15.970Z,14.50
2018-05-27T01:02:37.262Z,13.90
2018-05-27T01:02:58.536Z,14.40
2018-05-27T01:03:19.833Z,14.50
2018-05-27T01:03:41.898Z,14.10
2018-05-27T01:04:03.596Z,14.10
2018-05-27T01:04:25.646Z,14.50
2018-05-27T01:04:46.973Z,14.20
2018-05-27T01:05:31.771Z,14.10
2018-05-27T01:05:53.073Z,14.00
2018-05-27T01:06:14.412Z,14.50
2018-05-27T01:06:36.878Z,14.10
2018-05-27T01:06:58.152Z,14.00
2018-05-27T01:07:19.616Z,14.30
2018-05-27T01:09:06.228Z,14.10
2018-05-27T01:09:27.641Z,14.50
2018-05-27T01:09:49.820Z,13.70
2018-05-27T01:10:35.449Z,14.10
2018-05-27T01:11:43.373Z,13.00
2018-05-27T01:12:05.039Z,13.20
2018-05-27T01:12:27.099Z,14.00
2018-05-27T01:12:49.201Z,14.00
2018-05-27T01:13:10.555Z,14.30
2018-05-27T01:13:31.973Z,14.50
2018-05-27T01:13:53.423Z,14.00
2018-05-27T01:14:15.639Z,14.00
2018-05-27T01:14:37.037Z,14.00
2018-05-27T01:14:59.168Z,14.00
2018-05-27T01:15:44.403Z,14.00
2018-05-27T01:16:06.213Z,14.30
2018-05-27T01:16:28.331Z,13.70
2018-05-27T01:16:50.522Z,13.90
2018-05-27T01:17:11.931Z,14.30
2018-05-27T01:17:33.282Z,14.30
2018-05-27T01:17:55.513Z,13.90
2018-05-27T01:18:17.729Z,13.80
2018-05-27T01:18:39.209Z,14.30
2018-05-27T01:19:01.085Z,13.20
2018-05-27T01:19:23.665Z,14.00
2018-05-27T01:19:45.015Z,14.20
2018-05-27T01:20:07.189Z,13.90
2018-05-27T01:20:29.384Z,14.20
2018-05-27T01:20:51.461Z,13.90
2018-05-27T01:21:12.792Z,14.30
2018-05-27T01:21:34.550Z,14.20
2018-05-27T01:21:56.388Z,14.00
2018-05-27T01:22:17.841Z,13.40
2018-05-27T01:22:39.233Z,13.60
2018-05-27T01:23:00.678Z,13.90
2018-05-27T01:23:23.557Z,13.70
2018-05-27T01:24:08.549Z,14.10
2018-05-27T01:24:30.423Z,13.80
2018-05-27T01:24:52.552Z,13.50
2018-05-27T01:25:14.007Z,14.00
2018-05-27T01:25:35.398Z,14.20
2018-05-27T01:26:19.957Z,13.40
2018-05-27T01:27:28.856Z,13.60
2018-05-27T01:27:50.738Z,13.60
2018-05-27T01:28:12.217Z,13.60
2018-05-27T01:28:33.690Z,13.30
2018-05-27T01:29:50.687Z,13.60
2018-05-27T01:30:35.861Z,14.00
2018-05-27T01:30:57.165Z,13.70
2018-05-27T01:31:18.463Z,13.30
2018-05-27T01:31:39.736Z,13.70
2018-05-27T01:32:01.772Z,13.60
2018-05-27T01:32:24.144Z,13.90
2018-05-27T01:32:46.225Z,13.60
2018-05-27T01:33:07.581Z,13.60
2018-05-27T01:33:29.625Z,13.60
2018-05-27T01:33:52.026Z,13.60
2018-05-27T01:34:36.559Z,13.50
2018-05-27T01:34:59.182Z,13.50
2018-05-27T01:35:21.314Z,13.60
2018-05-27T01:35:42.760Z,13.40
2018-05-27T01:36:28.864Z,13.40
2018-05-27T01:38:00.553Z,13.50
2018-05-27T01:38:23.058Z,14.00
2018-05-27T01:38:44.783Z,13.60
2018-05-27T01:39:06.524Z,14.00
2018-05-27T01:39:27.993Z,13.20
2018-05-27T01:39:49.441Z,13.30
2018-05-27T01:40:11.603Z,13.60
2018-05-27T01:40:33.019Z,13.50
2018-05-27T01:40:56.008Z,13.30
2018-05-27T01:41:42.528Z,13.50
2018-05-27T01:42:28.399Z,13.40
2018-05-27T01:42:50.492Z,13.40
2018-05-27T01:43:11.963Z,13.50
2018-05-27T01:43:34.125Z,13.30
2018-05-27T01:43:56.603Z,13.30
2018-05-27T01:44:41.439Z,13.30
2018-05-27T01:45:02.733Z,13.70
2018-05-27T01:45:24.771Z,13.30
2018-05-27T01:45:46.067Z,13.40
2018-05-27T01:46:08.084Z,13.50
2018-05-27T01:46:30.145Z,13.10
2018-05-27T01:46:51.852Z,13.20
2018-05-27T01:47:14.274Z,13.30
2018-05-27T01:47:36.285Z,13.30
2018-05-27T01:47:57.590Z,13.30
2018-05-27T01:48:20.006Z,13.40
2018-05-27T01:48:41.308Z,13.50
2018-05-27T01:49:02.683Z,13.30
2018-05-27T01:49:24.371Z,13.40
2018-05-27T01:49:47.217Z,13.30
2018-05-27T01:50:10.023Z,12.60
2018-05-27T01:51:18.555Z,13.30
2018-05-27T01:51:40.597Z,13.40
2018-05-27T01:52:01.972Z,13.30
2018-05-27T01:52:24.043Z,13.30
2018-05-27T01:53:08.468Z,13.30
2018-05-27T01:53:31.318Z,13.30
2018-05-27T01:53:53.374Z,13.30
2018-05-27T01:54:38.197Z,13.30
2018-05-27T01:55:00.346Z,12.90
2018-05-27T01:55:21.643Z,13.00
2018-05-27T01:55:43.689Z,13.20
2018-05-27T01:56:06.232Z,13.30
2018-05-27T01:56:50.918Z,13.40
2018-05-27T01:57:40.073Z,13.50
2018-05-27T01:58:01.818Z,13.10
2018-05-27T01:58:23.931Z,13.00
2018-05-27T01:58:46.359Z,13.30
2018-05-27T01:59:08.412Z,13.30
2018-05-27T01:59:30.894Z,12.90
2018-05-27T01:59:52.936Z,13.30
2018-05-27T02:00:14.254Z,13.60
2018-05-27T02:00:35.693Z,13.30
2018-05-27T02:00:57.144Z,13.30
2018-05-27T02:01:42.838Z,13.20
2018-05-27T02:02:05.768Z,13.20
2018-05-27T02:02:50.279Z,13.50
2018-05-27T02:03:11.685Z,13.60
2018-05-27T02:03:33.168Z,13.30
2018-05-27T02:03:55.375Z,13.40
2018-05-27T02:05:03.413Z,13.20
2018-05-27T02:05:48.895Z,13.20
2018-05-27T02:06:10.655Z,12.90
2018-05-27T02:06:32.402Z,13.30
2018-05-27T02:06:54.940Z,13.30
2018-05-27T02:08:02.929Z,13.50
2018-05-27T02:08:24.391Z,12.90
2018-05-27T02:09:09.487Z,13.30
2018-05-27T02:09:54.119Z,13.50
2018-05-27T02:10:15.589Z,13.10
2018-05-27T02:11:24.568Z,13.00
2018-05-27T02:11:45.932Z,13.10
2018-05-27T02:12:55.004Z,13.20
2018-05-27T02:13:39.677Z,13.20
2018-05-27T02:14:01.832Z,14.20
2018-05-27T02:14:23.378Z,13.00
2018-05-27T02:14:45.570Z,13.20
2018-05-27T02:15:07.747Z,13.20
2018-05-27T02:15:30.249Z,13.10
2018-05-27T02:15:52.575Z,12.90
2018-05-27T02:16:15.229Z,13.10
2018-05-27T02:17:01.156Z,13.10
2018-05-27T02:17:22.480Z,12.70
2018-05-27T02:17:44.236Z,12.80
2018-05-27T02:18:06.312Z,13.20
2018-05-27T02:18:51.184Z,13.40
2018-05-27T02:19:13.347Z,13.10
2018-05-27T02:19:35.490Z,13.40
2018-05-27T02:19:57.962Z,13.30
2018-05-27T02:20:19.358Z,13.20
2018-05-27T02:21:27.442Z,13.10
2018-05-27T02:21:49.663Z,12.80
2018-05-27T02:22:11.910Z,13.10
2018-05-27T02:22:56.669Z,13.40
2018-05-27T02:23:18.867Z,13.10
2018-05-27T02:24:26.317Z,13.40
2018-05-27T02:24:48.068Z,13.20
2018-05-27T02:25:10.533Z,13.10
2018-05-27T02:25:32.574Z,13.20
2018-05-27T02:25:53.850Z,13.20
2018-05-27T02:26:15.524Z,13.20
2018-05-27T02:26:59.886Z,13.20
2018-05-27T02:27:22.684Z,13.20
2018-05-27T02:27:44.430Z,13.20
2018-05-27T02:28:29.244Z,13.20
2018-05-27T02:28:51.326Z,13.20
2018-05-27T02:29:13.751Z,13.30
2018-05-27T02:29:36.208Z,13.20
2018-05-27T02:29:57.931Z,13.20
2018-05-27T02:30:19.296Z,13.20
2018-05-27T02:30:40.626Z,12.90
2018-05-27T02:31:02.001Z,13.10
2018-05-27T02:31:23.691Z,13.20
2018-05-27T02:31:45.375Z,13.30
2018-05-27T02:32:30.206Z,13.30
2018-05-27T02:32:51.650Z,13.30
2018-05-27T02:33:13.541Z,12.50
2018-05-27T02:33:34.941Z,13.60
2018-05-27T02:33:57.481Z,13.30
2018-05-27T02:34:19.634Z,13.50
2018-05-27T02:35:04.216Z,13.40
2018-05-27T02:35:25.726Z,13.10
2018-05-27T02:36:11.250Z,13.20
2018-05-27T02:36:55.938Z,13.40
2018-05-27T02:37:18.840Z,13.00
2018-05-27T02:37:40.580Z,12.90
2018-05-27T02:38:25.051Z,13.40
2018-05-27T02:38:47.117Z,13.20
2018-05-27T02:39:54.578Z,12.70
2018-05-27T02:40:16.337Z,12.80
2018-05-27T02:40:37.771Z,13.40
2018-05-27T02:40:59.931Z,13.20
2018-05-27T02:41:21.325Z,13.00
2018-05-27T02:42:30.432Z,13.20
2018-05-27T02:42:52.966Z,13.10
2018-05-27T02:43:15.144Z,13.20
2018-05-27T02:43:37.252Z,13.20
2018-05-27T02:44:23.039Z,13.20
2018-05-27T02:44:45.331Z,13.20
2018-05-27T02:45:06.780Z,13.40
2018-05-27T02:45:51.224Z,13.20
2018-05-27T02:46:35.976Z,13.60
2018-05-27T02:46:57.770Z,13.10
2018-05-27T02:47:19.599Z,12.90
2018-05-27T02:47:40.990Z,13.60
2018-05-27T02:48:03.267Z,13.30
2018-05-27T02:48:25.007Z,12.80
2018-05-27T02:48:47.151Z,13.30
2018-05-27T02:49:32.469Z,13.20
2018-05-27T02:49:53.891Z,13.30
2018-05-27T02:50:15.333Z,13.50
2018-05-27T02:50:37.508Z,13.30
2018-05-27T02:51:46.093Z,13.30
2018-05-27T02:52:08.510Z,13.30
2018-05-27T02:52:30.606Z,13.00
2018-05-27T02:52:53.360Z,13.30
2018-05-27T02:53:15.368Z,13.30
2018-05-27T02:53:37.787Z,13.10
2018-05-27T02:53:59.098Z,13.00
2018-05-27T02:54:21.150Z,12.10
2018-05-27T02:54:43.244Z,13.00
2018-05-27T02:55:05.282Z,13.30
2018-05-27T02:55:49.664Z,13.30
2018-05-27T02:56:10.973Z,13.60
2018-05-27T02:56:33.406Z,13.60
2018-05-27T02:56:55.856Z,13.30
2018-05-27T02:57:17.557Z,13.20
2018-05-27T02:57:39.216Z,13.20
2018-05-27T02:58:00.515Z,13.30
2018-05-27T02:59:30.967Z,13.00
2018-05-27T02:59:53.246Z,13.20
2018-05-27T03:00:16.126Z,14.30
2018-05-27T03:01:01.448Z,13.20
2018-05-27T03:01:46.847Z,13.20
2018-05-27T03:02:09.002Z,13.20
2018-05-27T03:02:54.394Z,13.20
2018-05-27T03:04:02.385Z,13.20
2018-05-27T03:04:24.987Z,13.20
2018-05-27T03:04:47.185Z,13.20
2018-05-27T03:05:08.614Z,13.20
2018-05-27T03:06:16.794Z,13.10
2018-05-27T03:07:24.960Z,13.20
2018-05-27T03:07:46.318Z,13.20
2018-05-27T03:08:08.443Z,13.30
2018-05-27T03:08:31.060Z,13.30
2018-05-27T03:08:53.196Z,13.30
2018-05-27T03:09:15.357Z,13.30
2018-05-27T03:09:36.755Z,13.70
2018-05-27T03:09:58.093Z,13.20
2018-05-27T03:10:19.461Z,13.20
2018-05-27T03:10:41.701Z,13.30
2018-05-27T03:11:03.185Z,13.10
2018-05-27T03:12:34.805Z,12.50
2018-05-27T03:12:57.595Z,13.60
2018-05-27T03:13:19.682Z,13.30
2018-05-27T03:13:41.730Z,13.40
2018-05-27T03:14:03.108Z,13.70
2018-05-27T03:14:25.543Z,13.40
2018-05-27T03:14:46.817Z,13.20
2018-05-27T03:15:08.945Z,13.40
2018-05-27T03:15:31.356Z,13.40
2018-05-27T03:16:39.488Z,13.40
2018-05-27T03:17:24.993Z,13.40
2018-05-27T03:17:47.549Z,13.50
2018-05-27T03:18:09.674Z,13.50
2018-05-27T03:18:31.624Z,13.60
2018-05-27T03:18:53.439Z,13.50
2018-05-27T03:19:15.528Z,13.40
2018-05-27T03:19:37.951Z,13.50
2018-05-27T03:19:59.623Z,13.50
2018-05-27T03:20:44.386Z,13.20
2018-05-27T03:21:07.276Z,13.50
2018-05-27T03:21:29.893Z,13.70
2018-05-27T03:21:51.300Z,13.20
2018-05-27T03:22:12.761Z,13.10
2018-05-27T03:22:34.513Z,14.60
2018-05-27T03:22:55.864Z,13.60
2018-05-27T03:23:18.602Z,13.50
2018-05-27T03:24:03.679Z,13.50
2018-05-27T03:24:26.153Z,13.90
2018-05-27T03:24:47.444Z,13.20
2018-05-27T03:25:08.811Z,13.30
2018-05-27T03:25:53.741Z,13.30
2018-05-27T03:26:15.216Z,13.20
2018-05-27T03:26:37.395Z,13.70
2018-05-27T03:26:59.544Z,13.60
2018-05-27T03:27:21.356Z,13.60
2018-05-27T03:27:43.499Z,13.60
2018-05-27T03:28:04.989Z,13.70
2018-05-27T03:28:26.410Z,13.30
2018-05-27T03:29:11.196Z,13.50
2018-05-27T03:29:32.885Z,14.10
2018-05-27T03:29:54.208Z,13.50
2018-05-27T03:30:39.815Z,14.00
2018-05-27T03:31:02.371Z,14.10
2018-05-27T03:31:24.182Z,14.80
2018-05-27T03:32:33.355Z,13.80
2018-05-27T03:32:54.745Z,13.60
2018-05-27T03:33:16.575Z,14.10
2018-05-27T03:33:38.437Z,14.20
2018-05-27T03:34:00.245Z,13.60
2018-05-27T03:34:22.764Z,13.70
2018-05-27T03:34:44.592Z,13.90
2018-05-27T03:35:07.081Z,13.90
2018-05-27T03:35:52.368Z,13.90
2018-05-27T03:36:14.612Z,13.60
2018-05-27T03:36:36.131Z,14.20
2018-05-27T03:36:58.316Z,14.30
2018-05-27T03:37:44.326Z,13.80
2018-05-27T03:38:06.226Z,14.00
2018-05-27T03:38:27.599Z,14.30
2018-05-27T03:38:49.777Z,14.10
2018-05-27T03:39:12.052Z,13.80
2018-05-27T03:39:33.592Z,14.50
2018-05-27T03:39:55.046Z,14.20
2018-05-27T03:40:18.006Z,14.00
2018-05-27T03:40:39.969Z,14.10
2018-05-27T03:42:11.231Z,13.30
2018-05-27T03:42:33.464Z,14.40
2018-05-27T03:42:55.540Z,14.10
2018-05-27T03:43:17.375Z,14.60
2018-05-27T03:43:38.809Z,14.00
2018-05-27T03:44:00.996Z,14.20
2018-05-27T03:44:45.572Z,14.70
2018-05-27T03:45:30.620Z,14.00
2018-05-27T03:46:39.460Z,14.10
2018-05-27T03:48:11.693Z,14.00
2018-05-27T03:48:56.756Z,14.10
2018-05-27T03:49:41.506Z,14.40
2018-05-27T03:50:26.804Z,14.10
2018-05-27T03:50:49.305Z,14.40
2018-05-27T03:51:11.829Z,14.50
2018-05-27T03:52:58.334Z,14.30
2018-05-27T03:53:19.707Z,14.40
2018-05-27T03:54:32.751Z,14.30
2018-05-27T03:55:46.445Z,14.00
2018-05-27T03:56:09.517Z,14.40
2018-05-27T03:56:30.994Z,14.50
2018-05-27T03:56:52.447Z,14.80
2018-05-27T03:57:14.282Z,14.60
2018-05-27T03:57:58.863Z,14.80
2018-05-27T03:58:21.022Z,14.60
2018-05-27T03:58:42.845Z,14.20
2018-05-27T04:00:04.642Z,14.80
2018-05-27T04:00:26.079Z,15.20
2018-05-27T04:00:47.580Z,15.10
2018-05-27T04:01:32.179Z,14.90
2018-05-27T04:02:49.720Z,15.20
2018-05-27T04:03:11.037Z,14.60
2018-05-27T04:03:32.714Z,14.60
2018-05-27T04:04:58.519Z,17.10
2018-05-27T04:05:39.040Z,15.80
2018-05-27T04:06:54.636Z,15.20
2018-05-27T04:07:34.990Z,15.20
2018-05-27T04:08:14.721Z,15.60
2018-05-27T04:08:36.760Z,15.60
2018-05-27T04:08:58.081Z,15.10
2018-05-27T04:09:20.153Z,15.50
2018-05-27T04:09:42.631Z,15.40
2018-05-27T04:10:27.630Z,15.60
2018-05-27T04:10:50.407Z,15.60
2018-05-27T04:11:12.124Z,15.50
2018-05-27T04:11:33.407Z,16.00
2018-05-27T04:11:55.448Z,16.20
2018-05-27T04:12:17.936Z,15.60
2018-05-27T04:12:40.015Z,16.00
2018-05-27T04:13:01.403Z,15.80
2018-05-27T04:13:22.777Z,15.90
2018-05-27T04:13:44.105Z,16.00
2018-05-27T04:14:05.847Z,16.50
2018-05-27T04:14:27.294Z,16.60
2018-05-27T04:14:48.637Z,16.20
2018-05-27T04:15:11.507Z,16.50
2018-05-27T04:15:33.218Z,16.50
2018-05-27T04:15:54.888Z,16.60
2018-05-27T04:16:16.305Z,16.60
2018-05-27T04:16:37.595Z,17.00
2018-05-27T04:16:59.620Z,16.80
2018-05-27T04:17:21.637Z,16.90
2018-05-27T04:17:44.039Z,16.90
2018-05-27T04:18:05.366Z,17.20
2018-05-27T04:18:27.506Z,17.10
2018-05-27T04:18:48.877Z,16.90
2018-05-27T04:19:11.786Z,17.30
2018-05-27T04:19:33.657Z,17.60
2018-05-27T04:19:55.097Z,17.30
2018-05-27T04:20:16.954Z,17.60
2018-05-27T04:20:38.402Z,17.70
2018-05-27T04:21:00.628Z,17.80
2018-05-27T04:21:23.193Z,16.80
2018-05-27T04:21:44.594Z,17.90
2018-05-27T04:22:05.990Z,18.00
2018-05-27T04:22:27.534Z,17.90
2018-05-27T04:22:49.087Z,18.10
2018-05-27T04:23:11.616Z,18.20
2018-05-27T04:23:32.994Z,18.10
2018-05-27T04:23:54.753Z,18.30
2018-05-27T04:24:16.202Z,18.40
2018-05-27T04:24:38.361Z,18.30
2018-05-27T04:25:00.967Z,18.40
2018-05-27T04:25:22.771Z,18.50
2018-05-27T04:25:44.963Z,18.40
2018-05-27T04:26:06.324Z,18.50
2018-05-27T04:26:27.722Z,18.20
2018-05-27T04:26:49.938Z,18.40
2018-05-27T04:27:11.756Z,18.50
2018-05-27T04:27:33.160Z,18.70
2018-05-27T04:27:55.329Z,18.30
2018-05-27T04:28:17.912Z,18.40
2018-05-27T04:29:03.519Z,18.50
2018-05-27T04:29:25.279Z,18.70
2018-05-27T04:29:47.040Z,18.60
2018-05-27T04:30:08.677Z,18.50
2018-05-27T04:30:31.614Z,18.60
2018-05-27T04:30:53.476Z,18.90
2018-05-27T04:31:14.880Z,18.90
2018-05-27T04:31:36.339Z,18.90
2018-05-27T04:31:57.679Z,19.00
2018-05-27T04:32:18.967Z,19.00
2018-05-27T04:32:40.313Z,19.00
2018-05-27T04:33:02.793Z,19.30
2018-05-27T04:33:24.167Z,19.30
2018-05-27T04:33:45.660Z,19.20
2018-05-27T04:34:30.162Z,19.50
2018-05-27T04:34:52.321Z,19.40
2018-05-27T04:35:14.425Z,19.40
2018-05-27T04:35:36.619Z,19.50
2018-05-27T04:35:58.477Z,19.50
2018-05-27T04:36:20.622Z,19.40
2018-05-27T04:36:42.462Z,19.60
2018-05-27T04:37:03.966Z,19.60
2018-05-27T04:37:25.516Z,19.70
2018-05-27T04:37:48.043Z,19.70
2018-05-27T04:38:10.313Z,20.00
2018-05-27T04:38:31.769Z,20.00
2018-05-27T04:38:54.695Z,20.10
2018-05-27T04:39:39.328Z,20.30
2018-05-27T04:40:00.696Z,20.50
2018-05-27T04:40:22.114Z,20.60
2018-05-27T04:40:43.631Z,20.70
2018-05-27T04:41:05.090Z,20.60
2018-05-27T04:41:27.916Z,20.60
2018-05-27T04:41:49.320Z,20.70
2018-05-27T04:42:10.815Z,20.70
2018-05-27T04:42:55.394Z,20.80
2018-05-27T04:43:16.845Z,20.60
2018-05-27T04:43:38.299Z,21.00
2018-05-27T04:43:59.727Z,20.50
2018-05-27T04:44:21.923Z,20.40
2018-05-27T04:44:43.359Z,20.30
2018-05-27T04:45:04.735Z,20.20
2018-05-27T04:45:26.188Z,20.10
2018-05-27T04:45:48.293Z,20.00
2018-05-27T04:46:10.519Z,19.70
2018-05-27T04:46:33.062Z,19.80
2018-05-27T04:46:54.740Z,19.70
2018-05-27T04:47:16.581Z,19.60
2018-05-27T04:47:38.002Z,19.70
2018-05-27T04:47:59.381Z,19.50
2018-05-27T04:48:21.993Z,19.70
2018-05-27T04:48:44.256Z,19.40
2018-05-27T04:49:06.042Z,19.10
2018-05-27T04:49:27.717Z,19.00
2018-05-27T04:49:49.072Z,19.10
2018-05-27T04:50:11.109Z,19.30
2018-05-27T04:50:33.248Z,18.90
2018-05-27T04:50:54.895Z,18.80
2018-05-27T04:51:16.189Z,18.40
2018-05-27T04:51:37.473Z,18.50
2018-05-27T04:52:21.869Z,18.70
2018-05-27T04:52:43.560Z,18.40
2018-05-27T04:53:04.924Z,18.30
2018-05-27T04:53:26.595Z,18.40
2018-05-27T04:53:49.384Z,18.40
2018-05-27T04:54:11.403Z,18.30
2018-05-27T04:54:32.714Z,18.60
2018-05-27T04:54:54.726Z,18.30
2018-05-27T04:55:16.049Z,18.10
2018-05-27T04:55:38.051Z,18.20
2018-05-27T04:56:00.446Z,18.30
2018-05-27T04:56:22.489Z,17.90
2018-05-27T04:56:43.883Z,18.20
2018-05-27T04:57:05.180Z,18.30
2018-05-27T04:57:26.824Z,18.30
2018-05-27T04:57:48.103Z,18.20
2018-05-27T04:58:32.474Z,18.20
2018-05-27T04:58:54.495Z,18.00
2018-05-27T04:59:16.520Z,17.90
2018-05-27T04:59:37.862Z,18.10
2018-05-27T04:59:59.168Z,18.20
2018-05-27T05:00:20.540Z,17.90
2018-05-27T05:00:42.556Z,17.60
2018-05-27T05:01:04.587Z,18.20
2018-05-27T05:01:25.923Z,17.90
2018-05-27T05:01:47.214Z,18.10
2018-05-27T05:02:08.475Z,18.00
2018-05-27T05:02:31.238Z,18.00
2018-05-27T05:02:52.524Z,18.10
2018-05-27T05:03:14.688Z,18.00
2018-05-27T05:03:36.056Z,18.10
2018-05-27T05:03:57.763Z,18.10
2018-05-27T05:04:19.078Z,18.10
2018-05-27T05:04:41.192Z,18.30
2018-05-27T05:05:03.233Z,18.10
2018-05-27T05:05:24.566Z,17.90
2018-05-27T05:06:10.008Z,18.10
2018-05-27T05:06:31.292Z,18.20
2018-05-27T05:06:53.307Z,18.00
2018-05-27T05:07:14.709Z,17.90
2018-05-27T05:07:36.057Z,18.20
2018-05-27T05:07:58.297Z,18.10
2018-05-27T05:08:19.610Z,18.10
2018-05-27T05:08:41.354Z,18.10
2018-05-27T05:09:02.901Z,17.90
2018-05-27T05:09:24.327Z,17.80
2018-05-27T05:09:46.739Z,18.10
2018-05-27T05:10:08.443Z,18.30
2018-05-27T05:10:29.848Z,17.80
2018-05-27T05:10:51.173Z,18.20
2018-05-27T05:11:12.500Z,17.80
2018-05-27T05:11:33.880Z,17.80
2018-05-27T05:11:56.057Z,18.00
2018-05-27T05:12:17.816Z,18.00
2018-05-27T05:12:40.746Z,18.20
2018-05-27T05:13:26.417Z,18.00
2018-05-27T05:13:48.959Z,17.90
2018-05-27T05:14:11.135Z,18.00
2018-05-27T05:14:33.301Z,18.00
2018-05-27T05:14:55.553Z,18.10
2018-05-27T05:15:16.834Z,18.00
2018-05-27T05:16:02.283Z,18.00
2018-05-27T05:16:23.598Z,18.10
2018-05-27T05:16:45.692Z,18.00
2018-05-27T05:17:07.888Z,18.00
2018-05-27T05:17:29.601Z,18.10
2018-05-27T05:17:50.949Z,18.10
2018-05-27T05:18:13.013Z,18.00
2018-05-27T05:18:35.450Z,18.10
2018-05-27T05:18:57.851Z,17.80
2018-05-27T05:19:19.153Z,18.10
2018-05-27T05:20:03.997Z,18.10
2018-05-27T05:20:25.471Z,18.30
2018-05-27T05:20:47.225Z,18.20
2018-05-27T05:21:08.634Z,18.40
2018-05-27T05:21:30.106Z,18.30
2018-05-27T05:21:51.606Z,18.30
2018-05-27T05:22:13.078Z,18.40
2018-05-27T05:22:34.496Z,18.40
2018-05-27T05:22:55.874Z,18.30
2018-05-27T05:23:18.080Z,18.20
2018-05-27T05:23:39.491Z,18.40
2018-05-27T05:24:00.956Z,18.50
2018-05-27T05:24:23.134Z,18.40
2018-05-27T05:24:44.465Z,18.50
2018-05-27T05:25:06.545Z,18.70
2018-05-27T05:25:27.845Z,18.50
2018-05-27T05:25:49.916Z,18.60
2018-05-27T05:26:11.225Z,18.70
2018-05-27T05:26:32.645Z,18.90
2018-05-27T05:26:53.952Z,18.60
2018-05-27T05:27:15.273Z,18.70
2018-05-27T05:27:37.360Z,19.00
2018-05-27T05:27:58.700Z,18.80
2018-05-27T05:28:20.814Z,18.60
2018-05-27T05:28:42.876Z,18.90
2018-05-27T05:29:04.195Z,19.10
2018-05-27T05:29:25.512Z,19.00
2018-05-27T05:29:46.785Z,19.20
2018-05-27T05:30:08.139Z,19.00
2018-05-27T05:30:52.468Z,19.00
2018-05-27T05:31:13.787Z,19.00
2018-05-27T05:31:35.068Z,19.30
2018-05-27T05:31:57.158Z,19.20
2018-05-27T05:32:18.497Z,19.60
2018-05-27T05:32:39.773Z,19.30
2018-05-27T05:33:01.064Z,19.40
2018-05-27T05:33:22.346Z,19.70
2018-05-27T05:33:44.371Z,19.80
2018-05-27T05:34:05.634Z,19.80
2018-05-27T05:34:26.902Z,19.90
2018-05-27T05:34:48.968Z,20.20
2018-05-27T05:35:10.360Z,20.30
2018-05-27T05:35:32.452Z,20.40
2018-05-27T05:35:53.792Z,21.40
2018-05-27T05:36:15.966Z,20.70
2018-05-27T05:36:37.727Z,20.60
2018-05-27T05:36:59.090Z,20.60
2018-05-27T05:37:21.130Z,20.60
2018-05-27T05:37:42.404Z,20.60
2018-05-27T05:38:03.813Z,20.60
2018-05-27T05:38:25.839Z,20.50
2018-05-27T05:38:47.861Z,20.30
2018-05-27T05:39:09.157Z,20.40
2018-05-27T05:39:30.846Z,20.40
2018-05-27T05:39:52.278Z,20.30
2018-05-27T05:40:13.748Z,20.30
2018-05-27T05:40:35.813Z,20.20
2018-05-27T05:41:20.121Z,20.30
2018-05-27T05:41:42.544Z,20.00
2018-05-27T05:42:03.839Z,20.00
2018-05-27T05:42:25.165Z,20.00
2018-05-27T05:42:46.445Z,19.70
2018-05-27T05:43:07.770Z,20.10
2018-05-27T05:43:29.180Z,19.50
2018-05-27T05:43:50.445Z,19.60
2018-05-27T05:44:11.771Z,19.60
2018-05-27T05:44:33.067Z,19.70
2018-05-27T05:44:54.437Z,19.70
2018-05-27T05:45:15.851Z,19.30
2018-05-27T05:45:37.945Z,19.30
2018-05-27T05:45:59.243Z,19.20
2018-05-27T05:46:20.515Z,19.10
2018-05-27T05:46:41.764Z,18.80
2018-05-27T05:47:03.865Z,19.10
2018-05-27T05:47:25.501Z,18.90
2018-05-27T05:47:46.831Z,18.90
2018-05-27T05:48:08.532Z,18.90
2018-05-27T05:48:30.568Z,18.60
2018-05-27T05:48:52.627Z,18.40
2018-05-27T05:49:13.937Z,18.10
2018-05-27T05:49:36.359Z,18.20